EST,Max TemperatureF,Mean TemperatureF,Min TemperatureF,Max Dew PointF,MeanDew PointF,Min DewpointF,Max Humidity, Mean Humidity, Min Humidity, Max Sea Level PressureIn, Mean Sea Level PressureIn, Min Sea Level PressureIn, Max VisibilityMiles, Mean VisibilityMiles, Min VisibilityMiles, Max Wind SpeedMPH, Mean Wind SpeedMPH, Max Gust SpeedMPH,PrecipitationIn, CloudCover, Events, WindDirDegrees
2013-2-1,43,34,25,27,14,3,61,44,22,30.38,30.09,29.86,10,10,7,26,13,41,0.00,3,Rain,282
2013-2-2,39,31,23,29,12,5,74,46,24,30.41,30.27,30.03,10,10,10,10,5,,0.00,4,,204
2013-2-3,42,37,32,34,31,24,96,77,62,30.02,29.92,29.85,10,10,7,14,8,21,0.02,5,Fog-Rain,278
2013-2-4,43,36,28,26,21,17,64,52,40,30.14,30.05,29.95,10,10,10,15,10,22,0.00,5,,269
2013-2-5,57,49,41,32,30,28,63,52,35,29.99,29.93,29.86,10,10,10,14,10,20,0.00,7,,234
2013-2-6,51,44,36,32,31,29,79,62,43,30.34,30.15,29.95,10,10,9,13,6,,0.00,1,,62
2013-2-7,48,44,39,37,31,27,75,59,52,30.41,30.31,30.12,10,10,8,15,10,22,0.05,7,Rain,67
2013-2-8,51,48,44,45,33,24,87,61,41,30.06,29.75,29.59,10,6,1,33,21,47,2.10,7,Rain,344
2013-2-9,46,41,36,27,23,21,60,52,39,30.38,30.18,29.91,10,10,10,26,18,37,0.00,2,,329
2013-2-10,46,37,30,38,26,16,80,61,48,30.51,30.42,30.32,10,10,10,12,7,,0.00,4,,82
2013-2-11,64,55,46,59,51,38,100,80,58,30.28,30.03,29.82,10,7,2,23,12,31,0.06,8,Rain,197
2013-2-12,61,54,48,52,34,23,72,49,25,30.02,29.96,29.84,10,10,10,18,11,28,0.00,6,,252
2013-2-13,51,48,46,47,43,39,96,83,63,29.95,29.74,29.59,10,6,1,15,4,21,0.07,8,Rain,306
2013-2-14,46,42,39,43,35,29,93,75,50,30.10,29.96,29.74,10,10,5,17,11,24,0.00,6,,350
2013-2-15,57,46,35,39,35,32,93,70,39,30.09,30.03,29.94,10,9,6,13,5,,0.00,1,Fog,184
2013-2-16,45,39,33,36,33,30,96,84,60,29.97,29.84,29.76,10,6,1,25,13,34,0.45,6,Rain-Snow,359
2013-2-17,34,31,28,30,17,5,87,57,37,30.23,29.96,29.77,10,9,0,23,17,33,0.01,4,Snow,305
2013-2-18,44,32,21,25,14,5,68,46,24,30.42,30.34,30.25,10,10,10,14,10,23,0.00,2,,246
2013-2-19,61,48,36,52,41,25,88,70,47,30.29,29.98,29.81,10,10,3,23,11,32,0.03,5,Rain,212
2013-2-20,48,42,35,35,20,13,73,44,25,30.13,30.01,29.89,10,10,10,18,12,30,0.00,1,,301
2013-2-21,42,34,27,22,19,16,66,52,38,30.29,30.19,30.13,10,10,10,14,10,18,0.00,3,,344
2013-2-22,45,40,36,43,32,20,93,76,52,30.38,30.28,30.15,10,10,4,13,9,,0.08,8,Rain,41
2013-2-23,51,46,42,50,45,41,100,94,87,30.15,29.91,29.81,10,4,1,13,6,,0.62,8,Rain,317
2013-2-24,54,46,39,44,40,27,96,83,52,30.07,29.87,29.76,10,8,2,22,8,33,0.06,6,Rain-Thunderstorm,320
2013-2-25,42,37,32,28,25,22,82,62,53,30.23,30.18,30.10,10,10,10,16,10,26,0.00,6,,4
2013-2-26,59,48,36,57,46,29,94,86,73,30.19,29.88,29.56,10,6,0,30,12,41,1.19,8,Fog-Rain,101
2013-2-27,63,54,41,58,44,37,86,72,46,29.73,29.66,29.55,10,10,8,15,9,21,0.00,4,,250
2013-2-28,51,44,37,40,34,26,89,67,47,29.77,29.70,29.66,10,10,10,18,6,21,0.00,4,,287